Time;durP1;ratioP1;P1;durP2;ratioP2;P2;SDS_P1;SDS_P2;PMS_P1;PMS_P2;Temp;Humidity;BMP_temperature;BMP_pressure;BME280_temperature;BME280_humidity;BME280_pressure;Samples;Min_cycle;Max_cycle;Signal;HPM_P1;HPM_P2
2023/05/07 00:00:48;;;;;;;9.53;8.33;;;9.10;99.90;;;;;;5078717;28;20297;-50
2023/05/07 00:03:14;;;;;;;10.07;7.73;;;9.10;99.90;;;;;;5078416;28;20255;-52
2023/05/07 00:05:42;;;;;;;9.73;8.30;;;9.10;99.90;;;;;;5076922;28;20792;-52
2023/05/07 00:08:10;;;;;;;10.20;8.63;;;9.10;99.90;;;;;;5080742;28;20216;-52
2023/05/07 00:10:36;;;;;;;9.20;8.20;;;9.10;99.90;;;;;;5062752;28;20310;-49
2023/05/07 00:13:04;;;;;;;9.93;8.70;;;9.10;99.90;;;;;;5085727;28;20198;-50
2023/05/07 00:15:31;;;;;;;9.73;8.17;;;9.10;99.90;;;;;;5081580;28;20182;-49
2023/05/07 00:17:59;;;;;;;9.53;7.80;;;9.10;99.90;;;;;;5075637;28;20260;-50
2023/05/07 00:20:26;;;;;;;10.07;8.97;;;9.10;99.90;;;;;;5074850;28;20200;-53
2023/05/07 00:22:53;;;;;;;9.93;8.60;;;9.10;99.90;;;;;;5083610;28;20186;-47
2023/05/07 00:25:22;;;;;;;9.30;8.20;;;9.10;99.90;;;;;;5083075;28;20198;-52
2023/05/07 00:27:49;;;;;;;10.33;9.30;;;9.10;99.90;;;;;;5064331;28;20240;-51
2023/05/07 00:30:16;;;;;;;8.87;8.07;;;9.10;99.90;;;;;;5083754;28;20266;-56
2023/05/07 00:32:45;;;;;;;12.00;8.90;;;9.10;99.90;;;;;;5071921;28;20345;-52
2023/05/07 00:35:12;;;;;;;11.07;8.77;;;9.10;99.90;;;;;;5077366;28;20186;-52
2023/05/07 00:37:40;;;;;;;10.03;8.93;;;9.10;99.90;;;;;;5081364;28;20934;-48
2023/05/07 00:40:08;;;;;;;11.93;9.33;;;9.10;99.90;;;;;;5085571;28;20200;-53
2023/05/07 00:42:37;;;;;;;11.10;8.50;;;9.10;99.90;;;;;;5061704;28;20202;-53
2023/05/07 00:45:07;;;;;;;11.20;9.37;;;9.10;99.90;;;;;;5083329;28;20239;-49
2023/05/07 00:47:34;;;;;;;9.30;8.13;;;9.10;99.90;;;;;;5073104;28;20929;-51
2023/05/07 00:50:02;;;;;;;10.63;8.50;;;9.10;99.90;;;;;;5075123;28;20205;-52
2023/05/07 00:52:29;;;;;;;11.17;8.77;;;9.10;99.90;;;;;;5081417;28;20887;-52
2023/05/07 00:54:56;;;;;;;11.27;8.77;;;9.10;99.90;;;;;;5084123;28;20201;-53
2023/05/07 00:57:25;;;;;;;11.67;8.37;;;9.10;99.90;;;;;;5062767;28;20240;-49
2023/05/07 00:59:54;;;;;;;10.60;9.00;;;9.10;99.90;;;;;;5081617;28;20198;-50
2023/05/07 01:02:21;;;;;;;10.40;8.50;;;9.10;99.90;;;;;;5074457;28;20210;-53
2023/05/07 01:04:48;;;;;;;9.27;8.27;;;9.10;99.90;;;;;;5069251;28;20263;-52
2023/05/07 01:07:15;;;;;;;11.07;8.13;;;9.10;99.90;;;;;;5082627;28;20198;-52
2023/05/07 01:09:43;;;;;;;9.97;8.70;;;9.10;99.90;;;;;;5080238;28;20206;-51
2023/05/07 01:12:11;;;;;;;9.27;7.63;;;9.10;99.90;;;;;;5072042;28;20293;-54
2023/05/07 01:14:38;;;;;;;11.87;8.73;;;9.10;99.90;;;;;;5059492;28;20289;-52
2023/05/07 01:17:06;;;;;;;10.20;8.30;;;9.10;99.90;;;;;;5077481;28;20197;-54
2023/05/07 01:19:33;;;;;;;9.70;7.93;;;9.10;99.90;;;;;;5076570;28;20253;-51
2023/05/07 01:22:04;;;;;;;8.27;7.53;;;9.00;99.90;;;;;;5077575;28;20205;-52
2023/05/07 01:24:38;;;;;;;9.07;8.13;;;9.10;99.90;;;;;;5079286;28;20364;-51
2023/05/07 01:27:05;;;;;;;9.83;8.53;;;9.10;99.90;;;;;;5081327;28;20279;-52
2023/05/07 01:29:34;;;;;;;9.30;8.37;;;9.00;99.90;;;;;;5050759;28;20292;-55
2023/05/07 01:32:02;;;;;;;10.17;8.00;;;9.00;99.90;;;;;;5078315;28;20197;-50
2023/05/07 01:34:32;;;;;;;9.70;8.40;;;9.00;99.90;;;;;;5080343;28;20193;-54
2023/05/07 01:37:00;;;;;;;8.67;7.60;;;9.00;99.90;;;;;;5077982;28;20210;-51
2023/05/07 01:39:30;;;;;;;9.37;8.37;;;9.00;99.90;;;;;;5080156;28;20618;-55
2023/05/07 01:42:00;;;;;;;8.67;7.73;;;9.00;99.90;;;;;;5077932;28;20252;-52
2023/05/07 01:44:28;;;;;;;8.83;7.07;;;9.00;99.90;;;;;;5051543;28;20210;-53
2023/05/07 01:46:57;;;;;;;8.77;7.57;;;9.00;99.90;;;;;;5082773;28;20557;-52
2023/05/07 01:49:24;;;;;;;8.37;7.20;;;9.00;99.90;;;;;;5079334;28;20221;-54
2023/05/07 01:51:51;;;;;;;9.20;6.60;;;9.00;99.90;;;;;;5076530;28;20215;-50
2023/05/07 01:54:18;;;;;;;7.97;7.13;;;9.00;99.90;;;;;;5081455;28;20202;-51
2023/05/07 01:56:47;;;;;;;8.70;7.03;;;9.00;99.90;;;;;;5073450;28;20182;-49
2023/05/07 01:59:16;;;;;;;7.77;6.47;;;9.00;99.90;;;;;;5069505;28;20222;-54
2023/05/07 02:01:43;;;;;;;8.17;6.70;;;9.00;99.90;;;;;;5068754;28;20281;-53
2023/05/07 02:04:11;;;;;;;7.73;6.93;;;9.00;99.90;;;;;;5081968;28;20280;-52
2023/05/07 02:06:39;;;;;;;8.20;5.87;;;9.00;99.90;;;;;;5071207;28;20334;-53
2023/05/07 02:09:08;;;;;;;7.23;6.53;;;9.00;99.90;;;;;;5078540;28;20222;-52
2023/05/07 02:11:36;;;;;;;7.40;6.57;;;8.90;99.90;;;;;;5071472;28;20182;-47
2023/05/07 02:14:03;;;;;;;8.47;6.07;;;8.90;99.90;;;;;;5077389;28;20267;-52
2023/05/07 02:16:32;;;;;;;6.97;6.20;;;9.00;99.90;;;;;;5059129;28;20949;-47
2023/05/07 02:18:58;;;;;;;9.27;7.20;;;9.00;99.90;;;;;;5083009;28;20249;-50
2023/05/07 02:21:26;;;;;;;6.87;6.20;;;9.00;99.90;;;;;;5076815;28;20206;-54
2023/05/07 02:23:53;;;;;;;7.67;6.93;;;9.00;99.90;;;;;;5068945;28;20198;-51
2023/05/07 02:26:21;;;;;;;8.20;7.07;;;9.00;99.90;;;;;;5068558;28;20577;-55
2023/05/07 02:28:48;;;;;;;7.63;6.87;;;9.00;99.90;;;;;;5079791;28;20206;-51
2023/05/07 02:31:15;;;;;;;7.20;6.50;;;9.00;99.90;;;;;;5055822;28;20288;-54
2023/05/07 02:33:45;;;;;;;7.67;6.90;;;9.00;99.90;;;;;;5080332;28;20822;-52
2023/05/07 02:36:13;;;;;;;8.30;6.60;;;9.00;99.90;;;;;;5081324;28;20652;-53
2023/05/07 02:38:50;;;;;;;9.87;7.37;;;9.00;99.90;;;;;;5064705;28;20251;-53
2023/05/07 02:41:17;;;;;;;7.60;6.33;;;9.00;99.90;;;;;;5078097;28;20286;-56
2023/05/07 02:43:44;;;;;;;8.37;6.70;;;9.00;99.90;;;;;;5080224;28;20189;-51
2023/05/07 02:46:11;;;;;;;8.83;7.37;;;9.00;99.90;;;;;;5077224;28;20202;-51
2023/05/07 02:48:44;;;;;;;8.70;6.60;;;9.00;99.90;;;;;;5070308;28;20214;-54
2023/05/07 02:51:11;;;;;;;10.27;7.33;;;9.00;99.90;;;;;;5076790;28;20686;-53
2023/05/07 02:53:40;;;;;;;8.37;6.80;;;9.00;99.90;;;;;;5068675;28;20196;-47
2023/05/07 02:56:07;;;;;;;7.40;6.60;;;9.00;99.90;;;;;;5075035;28;20198;-50
2023/05/07 02:58:34;;;;;;;9.00;7.13;;;9.00;99.90;;;;;;5077675;28;20214;-52
2023/05/07 03:01:03;;;;;;;8.47;7.47;;;9.00;99.90;;;;;;5080229;28;20186;-52
2023/05/07 03:03:41;;;;;;;9.60;7.33;;;9.00;99.90;;;;;;5067372;28;20801;-52
2023/05/07 03:06:09;;;;;;;8.57;7.23;;;9.00;99.90;;;;;;5073766;28;20204;-53
2023/05/07 03:08:36;;;;;;;8.60;7.33;;;9.00;99.90;;;;;;5074587;28;20206;-52
2023/05/07 03:11:03;;;;;;;8.27;7.43;;;8.90;99.90;;;;;;5074772;28;20293;-51
2023/05/07 03:13:30;;;;;;;10.23;7.50;;;9.00;99.90;;;;;;5077737;28;20918;-48
2023/05/07 03:15:57;;;;;;;10.00;7.30;;;8.90;99.90;;;;;;5080778;28;20205;-48
2023/05/07 03:18:24;;;;;;;7.57;6.80;;;8.90;99.90;;;;;;5046506;28;20359;-52
2023/05/07 03:20:52;;;;;;;8.17;7.37;;;8.90;99.90;;;;;;5069513;28;20297;-55
2023/05/07 03:23:20;;;;;;;7.70;6.40;;;8.90;99.90;;;;;;5078225;28;20664;-53
2023/05/07 03:26:09;;;;;;;9.73;7.20;;;8.90;99.90;;;;;;5075299;28;20256;-53
2023/05/07 03:28:37;;;;;;;8.30;7.47;;;8.90;99.90;;;;;;5081319;28;20202;-53
2023/05/07 03:31:08;;;;;;;8.27;7.07;;;8.90;99.90;;;;;;5086747;28;20281;-54
2023/05/07 03:33:36;;;;;;;7.63;6.93;;;8.90;99.90;;;;;;5054855;28;20210;-55
2023/05/07 03:36:03;;;;;;;9.47;7.47;;;8.90;99.90;;;;;;5080291;28;20255;-54
2023/05/07 03:38:31;;;;;;;8.90;7.53;;;8.90;99.90;;;;;;5074563;28;20217;-52
2023/05/07 03:40:59;;;;;;;8.10;6.90;;;8.90;99.90;;;;;;5085408;28;20208;-52
2023/05/07 03:43:26;;;;;;;8.53;7.63;;;8.90;99.90;;;;;;5072289;28;20217;-53
2023/05/07 03:46:01;;;;;;;8.50;7.40;;;8.90;99.90;;;;;;5079554;28;20654;-52
2023/05/07 03:48:29;;;;;;;8.07;6.80;;;8.90;99.90;;;;;;5053180;28;20799;-49
2023/05/07 03:50:58;;;;;;;7.87;7.07;;;8.90;99.90;;;;;;5083652;28;20186;-50
2023/05/07 03:53:28;;;;;;;8.70;6.80;;;8.90;99.90;;;;;;5075778;28;20894;-52
2023/05/07 03:55:57;;;;;;;8.13;7.30;;;8.90;99.90;;;;;;5086395;28;20547;-54
2023/05/07 03:58:24;;;;;;;8.67;7.33;;;8.90;99.90;;;;;;5074411;28;20312;-53
2023/05/07 04:00:52;;;;;;;7.37;6.67;;;8.90;99.90;;;;;;5070862;28;20217;-55
2023/05/07 04:03:24;;;;;;;8.03;6.77;;;9.00;99.90;;;;;;5059090;28;20197;-53
2023/05/07 04:05:52;;;;;;;7.53;6.83;;;9.00;99.90;;;;;;5094155;28;20604;-50
2023/05/07 04:08:19;;;;;;;8.30;6.57;;;9.00;99.90;;;;;;5077575;28;20226;-51
2023/05/07 04:10:54;;;;;;;8.27;7.07;;;9.00;99.90;;;;;;5080605;28;20194;-53
2023/05/07 04:13:23;;;;;;;7.97;6.63;;;9.00;99.90;;;;;;5070527;28;20698;-50
2023/05/07 04:15:51;;;;;;;7.33;6.63;;;9.00;99.90;;;;;;5066903;28;20186;-52
2023/05/07 04:18:19;;;;;;;9.07;7.17;;;9.00;99.90;;;;;;5079140;28;20214;-53
2023/05/07 04:20:49;;;;;;;7.27;6.43;;;9.00;99.90;;;;;;5062682;28;20707;-50
2023/05/07 04:23:15;;;;;;;9.33;7.13;;;9.00;99.90;;;;;;5077343;28;20210;-53
2023/05/07 04:25:43;;;;;;;7.10;6.47;;;9.00;99.90;;;;;;5081237;28;20915;-53
2023/05/07 04:28:23;;;;;;;7.67;6.60;;;9.00;99.90;;;;;;5068312;28;20853;-53
2023/05/07 04:30:50;;;;;;;7.67;6.87;;;9.00;99.90;;;;;;5077550;28;20628;-47
2023/05/07 04:33:18;;;;;;;10.00;6.97;;;9.00;99.90;;;;;;5080577;28;20687;-55
2023/05/07 04:35:46;;;;;;;7.93;6.87;;;9.00;99.90;;;;;;5059962;28;20324;-50
2023/05/07 04:38:14;;;;;;;7.30;6.60;;;9.00;99.90;;;;;;5074059;28;20230;-55
2023/05/07 04:40:41;;;;;;;7.73;6.77;;;9.00;99.90;;;;;;5069149;28;20589;-51
2023/05/07 04:43:09;;;;;;;8.40;6.87;;;9.00;99.90;;;;;;5094492;28;20205;-53
2023/05/07 04:45:45;;;;;;;9.00;7.23;;;9.10;99.90;;;;;;5068925;28;20221;-48
2023/05/07 04:48:14;;;;;;;6.50;5.90;;;9.10;99.90;;;;;;5074839;28;20226;-52
2023/05/07 04:50:41;;;;;;;6.97;6.27;;;9.10;99.90;;;;;;5047699;28;20206;-51
2023/05/07 04:53:09;;;;;;;8.47;7.00;;;9.00;99.90;;;;;;5074494;28;20319;-53
2023/05/07 04:55:36;;;;;;;7.13;6.00;;;9.00;99.90;;;;;;5068172;28;20861;-52
2023/05/07 04:58:04;;;;;;;7.67;6.23;;;9.10;99.90;;;;;;5063881;28;20823;-50
2023/05/07 05:00:33;;;;;;;6.67;5.77;;;9.10;99.90;;;;;;5058764;28;20345;-51
2023/05/07 05:03:24;;;;;;;6.83;5.63;;;9.10;99.90;;;;;;5068787;28;20720;-53
2023/05/07 05:05:52;;;;;;;5.90;4.97;;;9.10;99.90;;;;;;5076268;28;20213;-48
2023/05/07 05:08:20;;;;;;;6.33;5.73;;;9.10;99.90;;;;;;5055820;28;20214;-53
2023/05/07 05:10:48;;;;;;;6.17;5.57;;;9.10;99.90;;;;;;5074004;28;20269;-50
2023/05/07 05:13:15;;;;;;;6.27;5.23;;;9.10;99.90;;;;;;5066789;28;20566;-55
2023/05/07 05:15:43;;;;;;;6.80;5.60;;;9.20;99.90;;;;;;5071638;28;20953;-48
2023/05/07 05:18:10;;;;;;;7.03;6.23;;;9.20;99.90;;;;;;5077411;28;20226;-54
2023/05/07 05:20:38;;;;;;;8.20;6.07;;;9.20;99.90;;;;;;5077722;28;20216;-46
2023/05/07 05:23:05;;;;;;;6.37;5.50;;;9.20;99.90;;;;;;5060006;28;20742;-51
2023/05/07 05:25:33;;;;;;;5.83;5.20;;;9.20;99.90;;;;;;5064693;28;20213;-50
2023/05/07 05:28:01;;;;;;;6.57;5.97;;;9.30;99.90;;;;;;5076508;28;20233;-51
2023/05/07 05:30:28;;;;;;;6.03;5.43;;;9.30;99.90;;;;;;5070507;28;23321;-50
2023/05/07 05:32:55;;;;;;;6.50;5.70;;;9.30;99.90;;;;;;5082410;28;20226;-49
2023/05/07 05:35:22;;;;;;;6.20;5.63;;;9.30;99.90;;;;;;5074457;28;20280;-54
2023/05/07 05:37:50;;;;;;;5.77;5.00;;;9.30;99.90;;;;;;5055624;28;20249;-53
2023/05/07 05:40:19;;;;;;;5.50;5.00;;;9.40;99.90;;;;;;5070092;28;20279;-55
2023/05/07 05:42:46;;;;;;;6.00;5.43;;;9.40;99.90;;;;;;5077933;28;20190;-52
2023/05/07 05:45:13;;;;;;;7.00;5.50;;;9.40;99.90;;;;;;5072121;28;20259;-53
2023/05/07 05:47:42;;;;;;;7.23;5.43;;;9.40;99.90;;;;;;5075457;28;20233;-51
2023/05/07 05:50:10;;;;;;;5.23;4.73;;;9.50;99.90;;;;;;5071915;28;20230;-52
2023/05/07 05:52:37;;;;;;;6.57;5.70;;;9.50;99.90;;;;;;5072528;28;20265;-52
2023/05/07 05:55:07;;;;;;;5.43;4.90;;;9.50;99.90;;;;;;5055235;28;20205;-48
2023/05/07 05:57:36;;;;;;;5.83;5.30;;;9.60;99.90;;;;;;5077718;28;20190;-53
2023/05/07 06:00:04;;;;;;;5.97;5.10;;;9.60;99.90;;;;;;5071754;28;20214;-50
2023/05/07 06:02:34;;;;;;;6.80;4.93;;;9.60;99.90;;;;;;5072279;28;20209;-51
2023/05/07 06:05:22;;;;;;;6.33;4.90;;;9.70;99.90;;;;;;5064813;28;20263;-55
2023/05/07 06:07:53;;;;;;;6.20;5.57;;;9.70;99.90;;;;;;5067713;28;20217;-52
2023/05/07 06:10:21;;;;;;;6.20;5.60;;;9.70;99.90;;;;;;5054065;28;20920;-48
2023/05/07 06:12:48;;;;;;;6.00;5.40;;;9.70;99.90;;;;;;5078455;28;20339;-55
2023/05/07 06:15:16;;;;;;;5.63;5.00;;;9.80;99.90;;;;;;5072649;28;20220;-55
2023/05/07 06:17:44;;;;;;;5.50;4.70;;;9.80;99.90;;;;;;5070736;28;20474;-52
2023/05/07 06:20:12;;;;;;;5.77;5.27;;;9.80;99.90;;;;;;5069694;28;20218;-55
2023/05/07 06:22:40;;;;;;;6.70;5.73;;;9.80;99.90;;;;;;5077570;28;20221;-52
2023/05/07 06:25:08;;;;;;;6.07;5.10;;;9.90;99.90;;;;;;5052640;28;20205;-52
2023/05/07 06:27:36;;;;;;;6.10;5.27;;;9.90;99.90;;;;;;5073907;28;20201;-48
2023/05/07 06:30:04;;;;;;;5.97;4.93;;;9.80;99.90;;;;;;5077607;28;20247;-46
2023/05/07 06:32:32;;;;;;;6.60;5.90;;;9.80;99.90;;;;;;5068328;28;20213;-54
2023/05/07 06:34:59;;;;;;;5.80;5.30;;;9.80;99.90;;;;;;5064693;28;20309;-53
2023/05/07 06:37:27;;;;;;;5.30;4.77;;;9.80;99.90;;;;;;5081885;28;20190;-48
2023/05/07 06:39:58;;;;;;;5.73;5.23;;;9.80;99.90;;;;;;5054748;28;20243;-55
2023/05/07 06:42:26;;;;;;;6.27;4.83;;;9.90;99.90;;;;;;5072852;28;20696;-47
2023/05/07 06:44:59;;;;;;;5.53;5.03;;;9.90;99.90;;;;;;5071382;28;20197;-52
2023/05/07 06:47:29;;;;;;;6.13;5.30;;;9.90;99.90;;;;;;5062309;28;20281;-51
2023/05/07 06:49:57;;;;;;;6.07;5.13;;;10.00;99.90;;;;;;5071388;28;20259;-52
2023/05/07 06:52:27;;;;;;;5.63;4.67;;;10.00;99.90;;;;;;5080608;28;20206;-52
2023/05/07 06:54:55;;;;;;;5.10;4.60;;;10.10;99.90;;;;;;5060032;28;20665;-53
2023/05/07 06:57:23;;;;;;;6.37;5.17;;;10.10;99.90;;;;;;5070545;28;20202;-49
2023/05/07 06:59:50;;;;;;;5.40;4.90;;;10.20;99.90;;;;;;5067652;28;20599;-52
2023/05/07 07:02:18;;;;;;;5.43;5.03;;;10.20;99.90;;;;;;5072064;28;20228;-53
2023/05/07 07:04:45;;;;;;;5.03;4.57;;;10.20;99.90;;;;;;5068087;28;20292;-54
2023/05/07 07:07:12;;;;;;;5.53;4.60;;;10.20;99.90;;;;;;5082089;28;20196;-47
2023/05/07 07:09:41;;;;;;;6.13;5.03;;;10.30;99.90;;;;;;5078898;28;20228;-48
2023/05/07 07:12:09;;;;;;;5.17;4.67;;;10.30;99.90;;;;;;5056000;28;20202;-50
2023/05/07 07:14:38;;;;;;;4.93;4.43;;;10.30;99.90;;;;;;5068962;28;20285;-51
2023/05/07 07:17:05;;;;;;;5.13;4.23;;;10.40;99.90;;;;;;5068186;28;20831;-52
2023/05/07 07:19:33;;;;;;;5.83;5.17;;;10.40;99.90;;;;;;5069667;28;20653;-50
2023/05/07 07:22:02;;;;;;;4.87;4.40;;;10.50;99.90;;;;;;5076894;28;20869;-52
2023/05/07 07:24:30;;;;;;;7.67;4.47;;;10.50;99.90;;;;;;5076502;28;20236;-52
2023/05/07 07:27:00;;;;;;;5.07;4.60;;;10.50;99.90;;;;;;5054488;28;20221;-51
2023/05/07 07:29:27;;;;;;;4.60;4.20;;;10.50;99.90;;;;;;5055485;28;20222;-47
2023/05/07 07:31:55;;;;;;;4.80;4.40;;;10.50;99.90;;;;;;5075080;28;21319;-52
2023/05/07 07:34:21;;;;;;;4.67;4.23;;;10.50;99.90;;;;;;5066577;28;20206;-53
2023/05/07 07:36:51;;;;;;;5.77;4.67;;;10.50;99.90;;;;;;5078718;28;20206;-48
2023/05/07 07:39:19;;;;;;;5.27;4.40;;;10.50;99.90;;;;;;5082467;28;20225;-50
2023/05/07 07:41:49;;;;;;;4.47;4.07;;;10.60;99.90;;;;;;5056686;28;20206;-53
2023/05/07 07:44:18;;;;;;;4.23;3.93;;;10.60;99.90;;;;;;5071159;28;20703;-52
2023/05/07 07:46:50;;;;;;;4.43;4.03;;;10.60;99.90;;;;;;5094155;27;20610;-44
2023/05/07 07:49:17;;;;;;;5.30;4.07;;;10.70;99.90;;;;;;5073325;28;20317;-53
2023/05/07 07:51:45;;;;;;;4.70;4.30;;;10.70;99.90;;;;;;5077813;28;20237;-47
2023/05/07 07:54:14;;;;;;;5.47;4.10;;;10.70;99.90;;;;;;5080127;28;20190;-51
2023/05/07 07:56:42;;;;;;;5.17;4.67;;;10.70;99.90;;;;;;5067006;28;20243;-52
2023/05/07 07:59:10;;;;;;;4.63;4.17;;;10.80;99.90;;;;;;5057510;28;20233;-49
2023/05/07 08:01:40;;;;;;;4.83;4.33;;;10.80;99.90;;;;;;5067024;28;20363;-51
2023/05/07 08:04:07;;;;;;;4.10;3.80;;;10.80;99.90;;;;;;5073303;28;20226;-52
2023/05/07 08:06:38;;;;;;;4.00;3.70;;;10.80;99.90;;;;;;5071680;28;20246;-47
2023/05/07 08:09:06;;;;;;;4.03;3.73;;;10.80;99.90;;;;;;5073291;28;20959;-50
2023/05/07 08:11:35;;;;;;;3.93;3.63;;;10.90;99.90;;;;;;5068900;28;20194;-48
2023/05/07 08:14:03;;;;;;;4.53;4.10;;;10.90;99.90;;;;;;5060434;28;20202;-49
2023/05/07 08:16:30;;;;;;;3.83;3.53;;;10.90;99.90;;;;;;5069047;28;20200;-47
2023/05/07 08:18:59;;;;;;;5.50;3.97;;;11.00;99.90;;;;;;5077706;28;20643;-49
2023/05/07 08:21:27;;;;;;;4.30;4.00;;;11.10;99.90;;;;;;5065625;28;20303;-51
2023/05/07 08:23:53;;;;;;;4.67;4.27;;;11.10;99.90;;;;;;5069480;28;20206;-50
2023/05/07 08:26:21;;;;;;;4.57;4.17;;;11.10;99.90;;;;;;5069241;28;20277;-53
2023/05/07 08:28:49;;;;;;;7.10;4.20;;;11.10;99.90;;;;;;5058607;28;20229;-49
2023/05/07 08:31:16;;;;;;;4.37;4.00;;;11.20;99.90;;;;;;5076203;28;20202;-45
2023/05/07 08:33:45;;;;;;;5.13;4.73;;;11.30;99.90;;;;;;5076117;28;20206;-50
2023/05/07 08:36:12;;;;;;;5.73;4.13;;;11.40;99.90;;;;;;5064677;28;20225;-50
2023/05/07 08:38:40;;;;;;;4.40;3.93;;;11.40;99.90;;;;;;5069989;28;20213;-48
2023/05/07 08:41:10;;;;;;;5.20;3.77;;;11.40;99.90;;;;;;5080413;28;20279;-52
2023/05/07 08:43:40;;;;;;;4.20;3.77;;;11.40;99.90;;;;;;5061249;28;20210;-50
2023/05/07 08:46:32;;;;;;;4.10;3.80;;;11.40;99.90;;;;;;5068607;28;20295;-50
2023/05/07 08:49:00;;;;;;;5.20;4.70;;;11.40;99.90;;;;;;5084095;28;20210;-50
2023/05/07 08:51:27;;;;;;;4.30;4.00;;;11.40;99.90;;;;;;5050566;28;20213;-52
2023/05/07 08:53:54;;;;;;;4.20;3.90;;;11.40;99.90;;;;;;5079302;28;20186;-51
2023/05/07 08:56:29;;;;;;;3.83;3.30;;;11.40;99.90;;;;;;5076533;28;20220;-49
2023/05/07 08:58:58;;;;;;;4.23;3.77;;;11.40;99.90;;;;;;5062184;28;20221;-48
2023/05/07 09:01:26;;;;;;;4.90;3.70;;;11.50;99.90;;;;;;5077013;28;20204;-49
2023/05/07 09:03:56;;;;;;;4.10;3.70;;;11.40;99.90;;;;;;5065491;28;20216;-46
2023/05/07 09:06:24;;;;;;;4.17;3.77;;;11.30;99.90;;;;;;5064288;28;20204;-52
2023/05/07 09:08:53;;;;;;;3.93;3.60;;;11.30;99.90;;;;;;5067401;28;20226;-48
2023/05/07 09:11:22;;;;;;;4.17;3.70;;;11.30;99.90;;;;;;5079793;28;20185;-47
2023/05/07 09:13:54;;;;;;;3.80;3.50;;;11.30;99.90;;;;;;5055605;28;20686;-49
2023/05/07 09:16:22;;;;;;;3.53;3.23;;;11.30;99.90;;;;;;5078794;28;20190;-47
2023/05/07 09:18:53;;;;;;;3.80;3.50;;;11.40;99.90;;;;;;5068558;28;20377;-49
2023/05/07 09:21:22;;;;;;;4.27;3.90;;;11.50;99.90;;;;;;5066469;28;20225;-51
2023/05/07 09:23:52;;;;;;;4.10;3.40;;;11.60;99.90;;;;;;5076109;28;20196;-50
2023/05/07 09:26:23;;;;;;;4.47;3.77;;;11.60;99.90;;;;;;5075455;28;20201;-50
2023/05/07 09:28:52;;;;;;;3.97;3.57;;;11.70;99.90;;;;;;5060847;28;20221;-53
2023/05/07 09:31:19;;;;;;;3.50;3.30;;;11.70;99.90;;;;;;5076646;28;20941;-53
2023/05/07 09:33:46;;;;;;;3.70;3.40;;;11.70;99.90;;;;;;5057500;28;20233;-53
2023/05/07 09:36:15;;;;;;;3.83;3.40;;;11.70;99.90;;;;;;5069074;28;20301;-51
2023/05/07 09:38:43;;;;;;;3.90;3.60;;;11.80;99.90;;;;;;5062917;28;20218;-48
2023/05/07 09:41:12;;;;;;;5.00;3.60;;;11.90;99.90;;;;;;5083437;28;20316;-49
2023/05/07 09:43:56;;;;;;;3.50;3.20;;;11.90;99.90;;;;;;5051334;28;21721;-53
2023/05/07 09:46:31;;;;;;;3.13;2.83;;;11.90;99.90;;;;;;5069172;28;20242;-50
2023/05/07 09:49:03;;;;;;;3.67;3.40;;;11.90;99.90;;;;;;5068046;28;20217;-51
2023/05/07 09:51:40;;;;;;;5.00;3.30;;;12.00;99.90;;;;;;5077093;28;20535;-51
2023/05/07 09:54:11;;;;;;;3.53;3.23;;;12.00;99.90;;;;;;5072421;28;20201;-51
2023/05/07 09:56:41;;;;;;;4.03;3.60;;;12.00;99.90;;;;;;5079098;28;20210;-47
2023/05/07 09:59:10;;;;;;;4.20;2.87;;;12.00;99.90;;;;;;5043726;28;21032;-47
2023/05/07 10:01:42;;;;;;;4.13;3.73;;;12.00;99.90;;;;;;5066933;28;20221;-53
2023/05/07 10:04:09;;;;;;;4.30;3.50;;;12.10;99.90;;;;;;5073725;28;20229;-51
2023/05/07 10:06:37;;;;;;;3.87;3.43;;;12.20;99.90;;;;;;5079266;28;20691;-52
2023/05/07 10:09:06;;;;;;;4.03;3.67;;;12.20;99.90;;;;;;5078777;28;20218;-49
2023/05/07 10:11:35;;;;;;;4.07;3.67;;;12.20;99.90;;;;;;5068084;28;20199;-52
2023/05/07 10:14:03;;;;;;;3.67;3.37;;;12.30;99.90;;;;;;5066595;28;20197;-50
2023/05/07 10:16:32;;;;;;;3.93;3.53;;;12.40;99.90;;;;;;5055826;28;20632;-49
2023/05/07 10:19:23;;;;;;;3.67;3.30;;;12.50;99.90;;;;;;5080498;28;20597;-47
2023/05/07 10:21:57;;;;;;;3.47;3.27;;;12.50;99.90;;;;;;5066236;28;20251;-47
2023/05/07 10:24:29;;;;;;;4.23;3.30;;;12.60;99.90;;;;;;5078563;28;20201;-51
2023/05/07 10:27:01;;;;;;;3.47;3.17;;;12.60;99.90;;;;;;5066961;28;20190;-51
2023/05/07 10:29:37;;;;;;;3.80;3.47;;;12.60;99.90;;;;;;5055610;28;20228;-50
2023/05/07 10:32:25;;;;;;;3.50;2.93;;;12.60;99.90;;;;;;5078489;28;20198;-49
2023/05/07 10:34:58;;;;;;;3.47;3.17;;;12.50;99.90;;;;;;5073806;28;20199;-52
2023/05/07 10:37:26;;;;;;;3.53;3.23;;;12.60;99.90;;;;;;5076499;28;20194;-51
2023/05/07 10:39:55;;;;;;;3.40;3.10;;;12.60;99.90;;;;;;5070440;28;20212;-52
2023/05/07 10:42:24;;;;;;;3.60;3.30;;;12.60;99.90;;;;;;5067358;28;20218;-47
2023/05/07 10:44:53;;;;;;;3.23;3.03;;;12.60;99.90;;;;;;5069907;28;20201;-46
2023/05/07 10:47:25;;;;;;;3.40;2.83;;;12.70;99.90;;;;;;5060080;28;20206;-46
2023/05/07 10:50:22;;;;;;;3.83;3.10;;;12.80;99.90;;;;;;5059881;28;20233;-49
2023/05/07 10:53:28;;;;;;;3.13;2.93;;;12.90;99.90;;;;;;5061974;28;20892;-51
2023/05/07 10:56:27;;;;;;;3.37;3.10;;;12.90;99.90;;;;;;5051162;28;20205;-52
2023/05/07 10:59:41;;;;;;;3.47;3.17;;;12.90;99.90;;;;;;5056998;28;20331;-49
2023/05/07 11:02:20;;;;;;;2.60;2.40;;;13.00;99.90;;;;;;5050988;28;20218;-48
2023/05/07 11:05:20;;;;;;;2.70;2.50;;;13.10;99.90;;;;;;5072783;28;20562;-52
2023/05/07 11:07:55;;;;;;;4.40;2.80;;;13.50;99.90;;;;;;5071016;28;20312;-49
2023/05/07 11:10:49;;;;;;;4.27;2.83;;;13.50;99.90;;;;;;5065863;28;20688;-50
2023/05/07 11:13:42;;;;;;;4.50;3.07;;;13.80;99.90;;;;;;5068349;28;20237;-49
2023/05/07 11:16:19;;;;;;;4.53;2.73;;;13.90;99.90;;;;;;5058289;28;20248;-50
2023/05/07 11:18:49;;;;;;;3.37;2.53;;;13.90;99.90;;;;;;5060728;28;20233;-49
2023/05/07 11:21:34;;;;;;;2.90;2.70;;;14.00;99.90;;;;;;5070324;28;20259;-47
2023/05/07 11:24:09;;;;;;;2.83;2.63;;;13.90;99.90;;;;;;5062402;28;20202;-50
2023/05/07 11:26:56;;;;;;;2.90;2.70;;;14.00;99.90;;;;;;5074737;28;20687;-48
2023/05/07 11:29:27;;;;;;;3.17;2.97;;;14.10;99.90;;;;;;5067345;28;20642;-45
2023/05/07 11:32:02;;;;;;;3.13;2.83;;;14.20;99.90;;;;;;5076876;28;20200;-48
2023/05/07 11:34:35;;;;;;;4.23;2.47;;;14.20;99.90;;;;;;5049752;28;20301;-46
2023/05/07 11:37:03;;;;;;;2.23;2.13;;;14.30;99.90;;;;;;5066553;28;20210;-51
2023/05/07 11:39:40;;;;;;;3.53;2.33;;;14.30;99.90;;;;;;5065803;28;20218;-49
2023/05/07 11:42:07;;;;;;;2.83;2.63;;;14.30;99.90;;;;;;5075820;28;20215;-50
2023/05/07 11:44:45;;;;;;;2.40;2.30;;;14.30;99.90;;;;;;5070736;28;20202;-45
2023/05/07 11:47:18;;;;;;;2.87;2.40;;;14.40;99.90;;;;;;5076872;28;20683;-51
2023/05/07 11:49:47;;;;;;;2.87;2.67;;;14.40;99.90;;;;;;5057888;28;20821;-48
2023/05/07 11:52:15;;;;;;;2.20;1.97;;;14.60;99.90;;;;;;5066114;28;20233;-49
2023/05/07 11:55:03;;;;;;;2.60;2.40;;;14.60;99.90;;;;;;5067783;28;20213;-53
2023/05/07 11:57:30;;;;;;;2.30;2.20;;;14.80;99.90;;;;;;5075951;28;20294;-49
2023/05/07 11:59:58;;;;;;;2.10;2.00;;;14.80;99.90;;;;;;5073520;28;20255;-47
2023/05/07 12:02:27;;;;;;;2.77;2.03;;;14.90;99.90;;;;;;5076007;28;20216;-50
2023/05/07 12:04:57;;;;;;;2.10;1.90;;;14.90;99.90;;;;;;5055091;28;20197;-50
2023/05/07 12:07:25;;;;;;;2.23;2.13;;;14.90;99.90;;;;;;5069551;28;20228;-50
2023/05/07 12:09:52;;;;;;;2.10;2.00;;;14.90;99.90;;;;;;5066293;28;20202;-48
2023/05/07 12:12:19;;;;;;;2.10;1.90;;;14.80;99.90;;;;;;5076495;28;20198;-46
2023/05/07 12:14:47;;;;;;;2.37;2.17;;;14.90;99.90;;;;;;5077009;28;20225;-50
2023/05/07 12:17:15;;;;;;;2.67;2.43;;;14.90;99.90;;;;;;5067525;28;20190;-48
2023/05/07 12:19:45;;;;;;;2.37;2.17;;;14.90;99.90;;;;;;5048868;28;20351;-46
2023/05/07 12:22:13;;;;;;;2.33;2.20;;;15.10;99.90;;;;;;5075045;28;20218;-49
2023/05/07 12:24:45;;;;;;;2.17;1.90;;;15.20;99.90;;;;;;5074872;28;20209;-50
2023/05/07 12:27:12;;;;;;;3.00;1.80;;;15.40;99.90;;;;;;5056593;28;20209;-47
2023/05/07 12:29:40;;;;;;;2.60;1.87;;;15.50;99.90;;;;;;5079774;28;20251;-51
2023/05/07 12:32:13;;;;;;;1.80;1.70;;;15.70;99.90;;;;;;5067678;28;20362;-44
2023/05/07 12:34:41;;;;;;;2.07;1.97;;;15.80;99.90;;;;;;5072229;28;20251;-51
2023/05/07 12:37:09;;;;;;;3.07;1.93;;;15.90;99.90;;;;;;5061463;28;20211;-46
2023/05/07 12:40:16;;;;;;;2.73;1.80;;;16.00;99.90;;;;;;5085499;28;20217;-54
2023/05/07 12:42:44;;;;;;;2.27;2.07;;;16.10;99.90;;;;;;5081884;28;20214;-49
2023/05/07 12:45:13;;;;;;;2.30;2.20;;;16.20;99.90;;;;;;5078796;28;20288;-47
2023/05/07 12:47:39;;;;;;;1.80;1.70;;;16.10;99.90;;;;;;5067681;28;20194;-49
2023/05/07 12:50:07;;;;;;;1.80;1.70;;;16.20;99.90;;;;;;5071429;28;20284;-45
2023/05/07 12:52:37;;;;;;;2.33;1.60;;;16.30;99.90;;;;;;5070932;28;20282;-48
2023/05/07 12:55:07;;;;;;;1.70;1.60;;;16.40;99.90;;;;;;5084832;28;20679;-48
2023/05/07 12:57:39;;;;;;;2.20;1.87;;;16.60;99.90;;;;;;5077994;28;20204;-52
2023/05/07 13:00:08;;;;;;;1.60;1.50;;;16.80;99.90;;;;;;5076670;28;20822;-49
2023/05/07 13:02:39;;;;;;;1.70;1.60;;;17.10;99.90;;;;;;5071707;28;20226;-49
2023/05/07 13:05:06;;;;;;;1.77;1.67;;;17.40;99.90;;;;;;5082816;28;20190;-48